Time;durP1;ratioP1;P1;durP2;ratioP2;P2;SDS_P1;SDS_P2;PMS_P1;PMS_P2;Temp;Humidity;BMP_temperature;BMP_pressure;BME280_temperature;BME280_humidity;BME280_pressure;Samples;Min_cycle;Max_cycle;Signal;HPM_P1;HPM_P2
2021/03/30 00:02:13;;;;;;;18.23;10.58;;;;;;;5.22;100.00;102214.98;1776156;80;21180;-57
2021/03/30 00:04:40;;;;;;;18.70;9.95;;;;;;;5.22;100.00;102204.34;1776202;80;21196;-57
2021/03/30 00:07:08;;;;;;;18.37;10.30;;;;;;;5.22;100.00;102204.34;1776144;80;21160;-57
2021/03/30 00:09:36;;;;;;;16.48;9.98;;;;;;;5.23;100.00;102208.80;1776198;80;21112;-57
2021/03/30 00:12:07;;;;;;;20.30;10.48;;;;;;;5.23;100.00;102207.46;1776264;80;22111;-57
2021/03/30 00:14:34;;;;;;;16.87;10.43;;;;;;;5.22;100.00;102205.68;1776044;80;21144;-57
2021/03/30 00:17:02;;;;;;;17.20;9.88;;;;;;;5.22;100.00;102197.25;1765599;80;21155;-57
2021/03/30 00:19:31;;;;;;;17.82;10.68;;;;;;;5.22;100.00;102192.38;1762002;81;21080;-57
2021/03/30 00:21:59;;;;;;;17.82;10.43;;;;;;;5.22;100.00;102200.36;1765477;81;21075;-57
2021/03/30 00:24:27;;;;;;;17.42;10.50;;;;;;;5.22;100.00;102204.34;1774291;80;21635;-57
2021/03/30 00:26:54;;;;;;;16.97;10.18;;;;;;;5.21;100.00;102192.80;1774160;80;21119;-57
2021/03/30 00:29:22;;;;;;;17.50;10.70;;;;;;;5.21;100.00;102203.44;1774289;80;21190;-58
2021/03/30 00:31:50;;;;;;;17.80;10.28;;;;;;;5.23;100.00;102210.13;1774207;80;21056;-57
2021/03/30 00:34:18;;;;;;;22.42;11.38;;;;;;;5.23;100.00;102210.13;1774192;80;21041;-57
2021/03/30 00:36:46;;;;;;;20.48;11.65;;;;;;;5.23;100.00;102206.13;1774238;80;21377;-57
2021/03/30 00:39:14;;;;;;;17.42;10.63;;;;;;;5.23;100.00;102214.11;1774196;80;21123;-57
2021/03/30 00:41:42;;;;;;;15.95;10.25;;;;;;;5.23;100.00;102208.80;1774257;80;21148;-57
2021/03/30 00:44:11;;;;;;;21.97;11.40;;;;;;;5.21;100.00;102221.19;1776054;80;21131;-57
2021/03/30 00:46:40;;;;;;;26.10;10.85;;;;;;;5.21;100.00;102221.19;1762664;81;21492;-57
2021/03/30 00:49:07;;;;;;;19.80;11.33;;;;;;;5.14;100.00;102213.11;1752934;80;21704;-57
2021/03/30 00:51:36;;;;;;;27.48;12.45;;;;;;;5.05;100.00;102225.41;1762498;81;21109;-57
2021/03/30 00:54:22;;;;;;;35.83;12.73;;;;;;;5.05;100.00;102225.41;1776736;80;21178;-56
2021/03/30 00:56:54;;;;;;;21.33;11.20;;;;;;;4.99;100.00;102232.45;1762125;81;21137;-57
2021/03/30 00:59:23;;;;;;;33.02;11.25;;;;;;;4.96;100.00;102226.19;1778351;80;21124;-57
2021/03/30 01:01:51;;;;;;;31.33;11.48;;;;;;;4.93;100.00;102223.49;1786884;80;21191;-57
2021/03/30 01:04:19;;;;;;;26.52;11.68;;;;;;;4.93;100.00;102223.49;1758160;80;21062;-57
2021/03/30 01:06:46;;;;;;;28.67;12.03;;;;;;;4.91;100.00;102226.58;1755717;81;21105;-57
2021/03/30 01:10:03;;;;;;;26.97;11.60;;;;;;;4.90;100.00;102227.03;1755740;81;21140;-58
2021/03/30 01:12:58;;;;;;;21.40;11.08;;;;;;;4.90;100.00;102223.46;1755822;81;21057;-58
2021/03/30 01:15:42;;;;;;;21.48;12.40;;;;;;;4.86;100.00;102228.74;1755793;81;22370;-56
2021/03/30 01:18:31;;;;;;;24.25;12.45;;;;;;;4.80;100.00;102225.11;1755427;81;21156;-57
2021/03/30 01:21:32;;;;;;;21.15;12.70;;;;;;;4.66;100.00;102232.48;1755788;81;21116;-57
2021/03/30 01:24:05;;;;;;;23.15;12.28;;;;;;;4.52;100.00;102234.92;1755823;81;21040;-57
2021/03/30 01:26:46;;;;;;;20.52;13.10;;;;;;;4.35;100.00;102233.81;1755988;81;21596;-57
2021/03/30 01:29:40;;;;;;;20.37;12.00;;;;;;;4.35;100.00;102233.81;1755786;81;21703;-57
2021/03/30 01:32:31;;;;;;;24.52;13.20;;;;;;;4.31;100.00;102232.86;1755892;81;21573;-56
2021/03/30 01:35:00;;;;;;;25.50;14.13;;;;;;;4.28;100.00;102227.06;1755720;81;21109;-56
2021/03/30 01:37:29;;;;;;;21.75;11.97;;;;;;;4.25;100.00;102226.14;1755787;81;21105;-57
2021/03/30 01:39:59;;;;;;;21.30;13.00;;;;;;;4.23;100.00;102228.76;1755793;81;21064;-56
2021/03/30 01:42:29;;;;;;;20.02;12.50;;;;;;;4.28;100.00;102229.72;1755785;81;22114;-57
2021/03/30 01:44:56;;;;;;;22.32;12.88;;;;;;;4.28;100.00;102229.72;1770678;80;21589;-57
2021/03/30 01:47:24;;;;;;;24.70;13.95;;;;;;;4.28;100.00;102237.68;1786852;80;21006;-58
2021/03/30 01:49:51;;;;;;;22.95;13.28;;;;;;;4.25;100.00;102234.11;1786826;80;21045;-59
2021/03/30 01:52:19;;;;;;;23.45;13.00;;;;;;;4.22;100.00;102225.66;1786919;80;21053;-57
2021/03/30 01:54:48;;;;;;;23.38;12.93;;;;;;;4.21;100.00;102229.17;1786794;80;21194;-57
2021/03/30 01:57:26;;;;;;;21.87;12.43;;;;;;;4.19;100.00;102230.91;1755434;80;21140;-57
2021/03/30 01:59:54;;;;;;;19.35;11.43;;;;;;;4.19;100.00;102233.99;1742633;82;21137;-57
2021/03/30 02:02:22;;;;;;;28.83;12.65;;;;;;;4.18;100.00;102238.42;1742690;82;21204;-57
2021/03/30 02:04:50;;;;;;;28.55;13.98;;;;;;;4.18;100.00;102235.77;1742757;82;21078;-57
2021/03/30 02:07:21;;;;;;;26.07;12.73;;;;;;;4.17;100.00;102233.98;1715999;82;21402;-56
2021/03/30 02:09:50;;;;;;;32.93;13.93;;;;;;;4.18;100.00;102232.20;1742587;82;21089;-57
2021/03/30 02:12:19;;;;;;;33.30;13.70;;;;;;;4.18;100.00;102229.13;1742697;82;21062;-57
2021/03/30 02:14:47;;;;;;;30.80;13.72;;;;;;;4.21;100.00;102229.63;1742602;82;21173;-57
2021/03/30 02:17:40;;;;;;;37.88;15.60;;;;;;;4.21;100.00;102235.81;1706608;83;21114;-56
2021/03/30 02:20:31;;;;;;;28.07;13.48;;;;;;;4.21;100.00;102235.81;1725188;83;21350;-56
2021/03/30 02:23:15;;;;;;;33.08;14.05;;;;;;;4.18;100.00;102238.42;1724926;83;21153;-56
2021/03/30 02:25:43;;;;;;;30.48;13.93;;;;;;;4.16;100.00;102236.19;1725221;83;21464;-57
2021/03/30 02:28:15;;;;;;;34.92;13.08;;;;;;;4.16;100.00;102236.19;1725134;83;21129;-57
2021/03/30 02:30:42;;;;;;;24.07;13.30;;;;;;;4.15;100.00;102239.26;1725154;83;21184;-57
2021/03/30 02:33:20;;;;;;;35.68;14.55;;;;;;;4.14;100.00;102237.92;1725158;83;22593;-56
2021/03/30 02:35:54;;;;;;;44.10;15.15;;;;;;;4.11;100.00;102237.88;1725070;83;21526;-56
2021/03/30 02:38:22;;;;;;;25.80;15.13;;;;;;;4.08;100.00;102248.00;1725151;83;21146;-56
2021/03/30 02:40:51;;;;;;;22.70;13.25;;;;;;;4.05;100.00;102254.59;1700842;83;21113;-57
2021/03/30 02:43:19;;;;;;;25.72;13.95;;;;;;;4.04;100.00;102253.23;1735680;82;21065;-56
2021/03/30 02:45:47;;;;;;;26.57;14.33;;;;;;;4.03;100.00;102251.44;1761386;81;21290;-57
2021/03/30 02:48:15;;;;;;;25.62;14.13;;;;;;;4.00;100.00;102257.16;1766763;81;21121;-57
2021/03/30 02:50:43;;;;;;;27.85;14.40;;;;;;;3.96;100.00;102271.67;1766767;81;21181;-57
2021/03/30 02:53:11;;;;;;;33.55;13.65;;;;;;;3.96;100.00;102271.67;1766694;81;21054;-57
2021/03/30 02:55:39;;;;;;;26.73;14.10;;;;;;;3.94;100.00;102279.62;1766972;81;21054;-57
2021/03/30 02:58:07;;;;;;;34.95;13.88;;;;;;;3.91;100.00;102280.91;1768625;81;21343;-57
2021/03/30 03:00:38;;;;;;;35.83;15.50;;;;;;;3.90;100.00;102282.20;1768488;81;21136;-57
2021/03/30 03:03:10;;;;;;;51.90;17.25;;;;;;;3.87;100.00;102283.05;1768607;81;21147;-57
2021/03/30 03:05:39;;;;;;;55.63;15.10;;;;;;;3.81;100.00;102275.88;1768449;80;21204;-57
2021/03/30 03:08:07;;;;;;;47.38;14.47;;;;;;;3.76;100.00;102275.32;1768582;81;21136;-57
2021/03/30 03:10:36;;;;;;;25.55;13.62;;;;;;;3.73;100.00;102280.13;1768547;81;21576;-57
2021/03/30 03:13:08;;;;;;;47.25;14.35;;;;;;;3.71;100.00;102273.91;1768624;81;21529;-57
2021/03/30 03:15:36;;;;;;;41.48;16.50;;;;;;;3.72;100.00;102268.64;1741770;81;21458;-57
2021/03/30 03:18:05;;;;;;;80.10;17.45;;;;;;;3.72;100.00;102268.64;1759868;79;21129;-57
2021/03/30 03:20:32;;;;;;;43.10;15.38;;;;;;;3.76;100.00;102268.69;1732169;81;21622;-57
2021/03/30 03:23:00;;;;;;;51.45;16.30;;;;;;;3.75;100.00;102273.53;1757479;81;21537;-57
2021/03/30 03:25:28;;;;;;;31.87;14.68;;;;;;;3.77;100.00;102277.11;1757472;81;21061;-57
2021/03/30 03:27:55;;;;;;;35.20;15.75;;;;;;;3.83;100.00;102289.15;1757494;81;21109;-57
2021/03/30 03:30:26;;;;;;;28.32;13.55;;;;;;;3.86;100.00;102287.45;1757443;81;20982;-57
2021/03/30 03:33:08;;;;;;;22.10;12.33;;;;;;;3.93;100.00;102280.92;1757514;81;21181;-57
2021/03/30 03:35:36;;;;;;;22.25;13.55;;;;;;;3.97;100.00;102288.05;1735019;81;21186;-57
2021/03/30 03:38:05;;;;;;;32.95;15.10;;;;;;;3.95;100.00;102292.03;1757347;81;21160;-57
2021/03/30 03:40:33;;;;;;;35.73;15.18;;;;;;;3.92;100.00;102293.31;1757523;81;21149;-57
2021/03/30 03:43:01;;;;;;;27.95;14.83;;;;;;;3.88;100.00;102296.78;1757430;81;21073;-57
2021/03/30 03:45:29;;;;;;;28.40;14.55;;;;;;;3.85;100.00;102306.89;1771236;80;21058;-56
2021/03/30 03:47:56;;;;;;;28.55;14.65;;;;;;;3.83;100.00;102302.41;1708385;82;21388;-56
2021/03/30 03:50:24;;;;;;;56.28;15.35;;;;;;;3.80;100.00;102307.67;1737535;82;22295;-57
2021/03/30 03:52:54;;;;;;;38.17;15.80;;;;;;;3.77;100.00;102307.63;1737509;82;21197;-57
2021/03/30 03:55:22;;;;;;;33.95;16.20;;;;;;;3.72;100.00;102300.47;1708208;84;21432;-56
2021/03/30 03:57:54;;;;;;;37.42;16.80;;;;;;;3.71;100.00;102303.09;1738157;82;21207;-57
2021/03/30 04:00:23;;;;;;;37.33;16.05;;;;;;;3.70;100.00;102301.30;1738286;82;21702;-57
2021/03/30 04:02:57;;;;;;;44.73;16.12;;;;;;;3.71;100.00;102309.30;1738211;82;21102;-57
2021/03/30 04:05:30;;;;;;;27.80;13.53;;;;;;;3.73;100.00;102308.89;1738546;82;21173;-57
2021/03/30 04:08:09;;;;;;;29.65;14.73;;;;;;;3.77;100.00;102307.63;1738414;82;21109;-57
2021/03/30 04:10:37;;;;;;;28.05;15.90;;;;;;;3.81;100.00;102317.00;1738160;82;21145;-56
2021/03/30 04:13:05;;;;;;;31.52;16.42;;;;;;;3.85;100.00;102316.19;1738286;82;21769;-57
2021/03/30 04:15:33;;;;;;;34.85;16.37;;;;;;;3.91;100.00;102317.16;1738220;82;21149;-57
2021/03/30 04:18:01;;;;;;;39.27;16.05;;;;;;;3.96;100.00;102312.39;1764133;79;21062;-57
2021/03/30 04:20:29;;;;;;;33.55;15.40;;;;;;;4.05;100.00;102306.77;1780809;80;21046;-57
2021/03/30 04:22:58;;;;;;;29.70;15.40;;;;;;;4.16;100.00;102306.54;1750827;80;21541;-57
2021/03/30 04:25:27;;;;;;;30.12;15.25;;;;;;;4.27;100.00;102308.92;1780784;80;21125;-57
2021/03/30 04:27:55;;;;;;;34.83;15.03;;;;;;;4.37;100.00;102311.30;1780746;80;21160;-57
2021/03/30 04:30:25;;;;;;;39.48;15.93;;;;;;;4.46;100.00;102310.55;1780823;80;21133;-58
2021/03/30 04:32:53;;;;;;;34.43;15.23;;;;;;;4.59;100.00;102316.94;1780797;80;21129;-57
2021/03/30 04:35:21;;;;;;;28.87;15.13;;;;;;;4.70;100.00;102317.09;1780888;80;21049;-57
2021/03/30 04:37:49;;;;;;;35.92;15.65;;;;;;;4.79;100.00;102319.00;1780786;80;21420;-57
2021/03/30 04:40:17;;;;;;;33.63;15.18;;;;;;;4.86;100.00;102332.41;1780772;80;21161;-57
2021/03/30 04:42:45;;;;;;;36.20;16.62;;;;;;;4.95;100.00;102338.28;1780828;79;21601;-57
2021/03/30 04:45:13;;;;;;;39.48;15.70;;;;;;;5.03;100.00;102339.73;1762425;80;21212;-58
2021/03/30 04:47:41;;;;;;;33.28;15.28;;;;;;;5.13;99.79;102340.29;1749933;82;21084;-57
2021/03/30 04:50:09;;;;;;;32.45;15.18;;;;;;;5.35;98.65;102357.86;1749871;82;21706;-57
2021/03/30 04:52:37;;;;;;;29.20;14.60;;;;;;;5.35;98.65;102357.86;1749825;82;21101;-57
2021/03/30 04:55:07;;;;;;;24.70;13.62;;;;;;;5.43;98.22;102346.89;1749852;82;21144;-57
2021/03/30 04:57:34;;;;;;;25.40;13.32;;;;;;;5.58;97.87;102354.16;1775551;80;21010;-57
2021/03/30 05:00:05;;;;;;;29.52;12.80;;;;;;;5.71;97.00;102352.95;1780882;80;21065;-57
2021/03/30 05:02:33;;;;;;;26.87;13.40;;;;;;;5.80;95.51;102362.81;1780820;80;21356;-57
2021/03/30 05:05:01;;;;;;;23.90;12.35;;;;;;;5.89;95.23;102358.94;1780748;80;20947;-58
2021/03/30 05:07:29;;;;;;;23.98;13.70;;;;;;;6.04;94.61;102369.30;1780763;80;21058;-58
2021/03/30 05:09:58;;;;;;;27.25;13.35;;;;;;;6.17;93.53;102373.88;1780745;80;21062;-57
2021/03/30 05:12:25;;;;;;;28.45;14.38;;;;;;;6.27;92.81;102354.42;1780846;80;21128;-57
2021/03/30 05:14:53;;;;;;;26.93;13.32;;;;;;;6.36;92.05;102360.27;1780767;80;21320;-58
2021/03/30 05:17:21;;;;;;;22.32;13.13;;;;;;;6.49;91.26;102359.92;1782391;80;21093;-58
2021/03/30 05:19:49;;;;;;;26.75;13.72;;;;;;;6.61;90.41;102362.25;1790199;80;21073;-58
2021/03/30 05:22:18;;;;;;;26.93;14.23;;;;;;;6.73;89.36;102371.66;1790228;80;21049;-57
2021/03/30 05:24:46;;;;;;;27.20;15.45;;;;;;;6.73;88.96;102355.66;1790270;80;21112;-57
2021/03/30 05:27:13;;;;;;;25.85;13.90;;;;;;;6.78;88.68;102369.94;1790244;80;21462;-58
2021/03/30 05:29:44;;;;;;;27.90;14.35;;;;;;;6.82;88.31;102386.41;1790160;80;21073;-58
2021/03/30 05:32:14;;;;;;;24.55;13.32;;;;;;;6.84;87.88;102369.97;1790262;80;21065;-58
2021/03/30 05:34:50;;;;;;;26.65;14.30;;;;;;;6.88;87.71;102379.77;1790273;80;21478;-58
2021/03/30 05:37:17;;;;;;;26.25;14.15;;;;;;;6.93;87.01;102366.90;1790157;80;21061;-57
2021/03/30 05:39:45;;;;;;;26.30;13.95;;;;;;;6.95;86.66;102379.80;1790234;80;21195;-58
2021/03/30 05:42:14;;;;;;;28.40;14.50;;;;;;;6.91;86.05;102386.91;1790131;80;21160;-57
2021/03/30 05:44:43;;;;;;;26.50;13.62;;;;;;;6.86;86.18;102394.87;1789565;80;21069;-57
2021/03/30 05:49:40;;;;;;;25.35;14.05;;;;;;;6.86;86.37;102388.66;1768727;81;21083;-57
2021/03/30 05:52:28;;;;;;;27.52;14.60;;;;;;;6.94;86.42;102396.68;1757401;81;22348;-57
2021/03/30 05:54:51;;;;;;;21.65;13.38;;;;;;;6.99;85.85;102390.96;1767613;81;20972;-57
2021/03/30 05:57:19;;;;;;;21.95;13.35;;;;;;;7.03;85.64;102392.30;1758437;81;21053;-58
2021/03/30 05:59:51;;;;;;;26.80;12.80;;;;;;;7.12;85.50;102396.80;1770315;81;21067;-57
2021/03/30 06:02:24;;;;;;;24.67;13.90;;;;;;;7.16;84.97;102395.93;1790348;80;21478;-57
2021/03/30 06:04:54;;;;;;;23.92;13.20;;;;;;;7.20;85.14;102401.31;1787421;80;21350;-57
2021/03/30 06:07:23;;;;;;;22.93;13.72;;;;;;;7.31;84.41;102399.16;1739651;82;21189;-57
2021/03/30 06:09:51;;;;;;;23.42;13.75;;;;;;;7.37;84.37;102414.27;1758690;81;21200;-58
2021/03/30 06:12:20;;;;;;;24.70;13.55;;;;;;;7.44;84.05;102398.77;1758782;81;21131;-58
2021/03/30 06:14:48;;;;;;;22.05;12.55;;;;;;;7.53;83.77;102408.59;1758883;81;21147;-59
2021/03/30 06:17:17;;;;;;;27.55;13.62;;;;;;;7.62;83.12;102413.05;1758929;80;21206;-56
2021/03/30 06:19:55;;;;;;;21.05;12.85;;;;;;;7.65;82.49;102431.78;1758000;81;21153;-58
2021/03/30 06:22:26;;;;;;;23.52;12.85;;;;;;;7.62;81.71;102414.38;1758093;81;21145;-57
2021/03/30 06:24:54;;;;;;;23.07;13.37;;;;;;;7.56;81.99;102409.94;1758018;81;21145;-58
2021/03/30 06:27:28;;;;;;;22.90;12.75;;;;;;;7.55;82.05;102420.59;1758129;81;21062;-58
2021/03/30 06:29:59;;;;;;;22.73;13.30;;;;;;;7.55;82.13;102434.85;1760237;80;21191;-57
2021/03/30 06:32:27;;;;;;;20.72;12.65;;;;;;;7.56;82.48;102417.95;1762363;80;21451;-58
2021/03/30 06:35:10;;;;;;;25.35;13.18;;;;;;;7.64;82.26;102421.98;1766419;80;21161;-57
2021/03/30 06:37:39;;;;;;;22.65;13.90;;;;;;;7.76;82.38;102428.24;1743813;81;21490;-58
2021/03/30 06:40:12;;;;;;;24.10;13.98;;;;;;;8.09;81.51;102427.92;1741771;82;21153;-58
2021/03/30 06:45:24;;;;;;;22.23;13.90;;;;;;;9.02;78.55;102433.33;1872961;76;26915;-57
2021/03/30 06:47:58;;;;;;;27.48;15.13;;;;;;;9.25;76.85;102443.09;1840579;77;21190;-57
2021/03/30 06:50:34;;;;;;;22.17;13.25;;;;;;;9.42;75.39;102436.35;1841127;78;21366;-58
2021/03/30 06:53:12;;;;;;;25.32;13.80;;;;;;;9.45;74.24;102445.28;1840786;78;21324;-57
2021/03/30 06:55:53;;;;;;;19.60;13.00;;;;;;;9.27;74.21;102454.69;1837962;78;20898;-58
2021/03/30 06:58:23;;;;;;;22.42;14.58;;;;;;;8.98;74.62;102446.27;1782804;80;21505;-58
2021/03/30 07:00:50;;;;;;;25.57;14.63;;;;;;;8.68;75.49;102444.04;1782628;80;21011;-58
2021/03/30 07:03:22;;;;;;;23.20;13.00;;;;;;;8.47;76.15;102452.45;1782643;80;21685;-58
2021/03/30 07:05:55;;;;;;;22.62;13.22;;;;;;;8.31;77.11;102454.22;1752854;80;21511;-58
2021/03/30 07:08:23;;;;;;;22.70;13.00;;;;;;;8.19;77.55;102444.41;1782583;80;21019;-58
2021/03/30 07:10:52;;;;;;;21.68;13.45;;;;;;;8.12;78.22;102442.61;1782648;80;20955;-58
2021/03/30 07:13:22;;;;;;;25.12;14.50;;;;;;;8.08;78.61;102438.16;1782617;80;21462;-58
2021/03/30 07:16:01;;;;;;;30.92;14.40;;;;;;;8.05;78.68;102446.13;1782733;80;22729;-57
2021/03/30 07:18:39;;;;;;;23.02;13.45;;;;;;;8.02;79.07;102438.56;1805578;76;21058;-58
2021/03/30 07:21:23;;;;;;;22.25;14.00;;;;;;;8.01;79.42;102448.80;1807886;79;21200;-58
2021/03/30 07:23:58;;;;;;;24.15;14.05;;;;;;;8.00;79.38;102448.36;1809514;78;21169;-58
2021/03/30 07:26:33;;;;;;;23.73;14.65;;;;;;;7.98;79.55;102456.81;1807339;79;21143;-58
2021/03/30 07:29:15;;;;;;;23.35;14.40;;;;;;;7.99;80.03;102459.93;1779132;79;21344;-59
2021/03/30 07:32:15;;;;;;;23.70;14.10;;;;;;;8.04;80.05;102463.96;1807827;79;21631;-58
2021/03/30 07:35:01;;;;;;;21.52;13.35;;;;;;;8.07;79.78;102471.07;1807901;79;20985;-57
2021/03/30 07:38:05;;;;;;;26.67;13.23;;;;;;;8.09;79.59;102466.66;1889336;76;27496;-57
2021/03/30 07:40:36;;;;;;;23.15;13.38;;;;;;;8.00;79.96;102471.06;1842679;76;20913;-58
2021/03/30 07:43:09;;;;;;;22.62;14.73;;;;;;;7.97;80.14;102463.05;1826531;78;21464;-58
2021/03/30 07:45:42;;;;;;;26.77;14.30;;;;;;;7.98;80.37;102465.28;1832109;77;21016;-58
2021/03/30 07:48:15;;;;;;;22.95;13.68;;;;;;;8.01;80.16;102459.48;1840537;77;21567;-58
2021/03/30 07:51:02;;;;;;;21.25;13.80;;;;;;;8.00;80.17;102488.42;1859970;77;21542;-57
2021/03/30 07:53:55;;;;;;;21.12;12.95;;;;;;;7.98;79.92;102476.84;1859731;77;20925;-57
2021/03/30 07:56:40;;;;;;;22.77;13.48;;;;;;;7.95;80.22;102479.51;1848953;77;21176;-57
2021/03/30 07:59:09;;;;;;;19.25;12.10;;;;;;;7.92;80.11;102485.27;1826404;78;21032;-57
2021/03/30 08:01:37;;;;;;;21.87;13.28;;;;;;;7.84;80.19;102483.47;1859443;77;20925;-59
2021/03/30 08:04:05;;;;;;;22.75;13.13;;;;;;;7.82;80.71;102481.67;1860209;77;21056;-58
2021/03/30 08:06:49;;;;;;;21.23;12.68;;;;;;;7.81;81.04;102477.22;1859559;77;21072;-58
2021/03/30 08:09:19;;;;;;;20.80;13.35;;;;;;;7.84;81.12;102479.89;1860213;77;21565;-57
2021/03/30 08:11:56;;;;;;;18.82;11.97;;;;;;;7.86;80.85;102480.83;1860154;77;21147;-57
2021/03/30 08:14:36;;;;;;;20.12;12.10;;;;;;;7.89;80.11;102488.38;1860224;77;21065;-56
2021/03/30 08:17:12;;;;;;;19.50;11.97;;;;;;;7.91;80.03;102479.48;1860139;77;21182;-58
2021/03/30 08:20:03;;;;;;;22.32;12.73;;;;;;;7.94;79.94;102479.06;1827905;77;20980;-59
2021/03/30 08:22:42;;;;;;;21.75;12.68;;;;;;;8.00;80.15;102480.87;1860249;77;21731;-58
2021/03/30 08:25:25;;;;;;;20.90;12.65;;;;;;;8.06;79.90;102493.33;1860171;77;21051;-57
2021/03/30 08:27:52;;;;;;;21.68;12.82;;;;;;;8.11;79.65;102480.91;1860156;77;20949;-58
2021/03/30 08:30:32;;;;;;;22.17;12.35;;;;;;;8.12;79.63;102481.36;1860171;77;21092;-58
2021/03/30 08:32:59;;;;;;;23.40;12.03;;;;;;;8.16;79.47;102477.80;1855330;77;21107;-59
2021/03/30 08:35:33;;;;;;;19.25;12.25;;;;;;;8.20;79.58;102492.95;1860095;77;21341;-56
2021/03/30 08:38:02;;;;;;;19.92;12.13;;;;;;;8.27;79.29;102488.52;1860216;77;20949;-58
2021/03/30 08:40:41;;;;;;;25.43;11.78;;;;;;;8.31;78.87;102484.53;1849852;77;21111;-57
2021/03/30 08:43:19;;;;;;;21.27;12.70;;;;;;;8.31;78.30;102489.88;1848045;77;21000;-58
2021/03/30 08:46:02;;;;;;;18.95;10.72;;;;;;;8.27;78.61;102493.40;1849137;77;21345;-58
2021/03/30 08:48:47;;;;;;;18.00;12.15;;;;;;;8.28;78.79;102496.52;1846895;77;21364;-59
2021/03/30 08:51:18;;;;;;;18.80;12.00;;;;;;;8.32;78.67;102493.42;1782769;80;25072;-58
2021/03/30 08:53:47;;;;;;;18.90;12.15;;;;;;;8.35;78.38;102487.20;1791039;79;21078;-57
2021/03/30 08:56:27;;;;;;;18.82;12.25;;;;;;;8.38;78.59;102489.88;1785389;80;21183;-58
2021/03/30 08:58:57;;;;;;;20.75;11.95;;;;;;;8.44;78.37;102489.88;1736496;81;21053;-58
2021/03/30 09:01:25;;;;;;;20.23;10.28;;;;;;;8.46;78.17;102489.01;1765067;81;21328;-58
2021/03/30 09:03:55;;;;;;;18.40;10.53;;;;;;;8.50;77.80;102496.59;1764924;81;20950;-62
2021/03/30 09:06:33;;;;;;;22.15;12.45;;;;;;;8.52;77.03;102493.94;1764759;81;21161;-57
2021/03/30 09:08:59;;;;;;;20.77;11.85;;;;;;;8.50;77.11;102485.91;1764903;81;21116;-57
2021/03/30 09:11:28;;;;;;;19.48;11.73;;;;;;;8.49;77.48;102488.10;1765020;81;21173;-58
2021/03/30 09:14:08;;;;;;;21.80;12.10;;;;;;;8.51;77.62;102487.72;1764945;81;21341;-58
2021/03/30 09:16:37;;;;;;;21.37;12.35;;;;;;;8.52;77.65;102488.59;1764889;81;21424;-59
2021/03/30 09:19:31;;;;;;;18.35;11.78;;;;;;;8.54;77.32;102501.52;1764949;81;21077;-58
2021/03/30 09:22:00;;;;;;;20.77;12.50;;;;;;;8.54;77.20;102497.50;1764686;81;20958;-58
2021/03/30 09:27:22;;;;;;;21.35;11.40;;;;;;;8.52;76.42;102490.84;1764923;81;21261;-58
2021/03/30 09:29:53;;;;;;;20.77;11.70;;;;;;;8.50;76.61;102499.73;1764951;81;21112;-58
2021/03/30 09:32:22;;;;;;;18.87;11.90;;;;;;;8.50;77.05;102489.91;1765094;81;21164;-58
2021/03/30 09:34:50;;;;;;;16.65;9.88;;;;;;;8.56;76.96;102500.64;1764935;81;21168;-57
2021/03/30 09:37:17;;;;;;;15.78;10.35;;;;;;;8.59;76.16;102505.09;1758970;81;21128;-58
2021/03/30 09:39:46;;;;;;;24.18;12.65;;;;;;;8.58;76.03;102498.86;1770856;80;21384;-59
2021/03/30 09:42:14;;;;;;;20.20;11.08;;;;;;;8.57;76.11;102501.09;1776224;80;21141;-57
2021/03/30 09:44:44;;;;;;;18.52;10.88;;;;;;;8.58;75.70;102496.61;1728451;80;21098;-57
2021/03/30 09:47:13;;;;;;;16.77;10.30;;;;;;;8.59;75.45;102503.75;1772003;80;21153;-58
2021/03/30 09:49:42;;;;;;;17.25;8.93;;;;;;;8.55;74.60;102496.19;1767465;80;21122;-57
2021/03/30 09:52:13;;;;;;;13.60;8.30;;;;;;;8.56;73.99;102511.34;1767789;80;20935;-58
2021/03/30 09:54:43;;;;;;;13.28;9.00;;;;;;;8.56;73.57;102505.09;1786546;80;21011;-59
2021/03/30 10:00:04;;;;;;;15.63;9.15;;;;;;;8.62;73.14;102505.12;1872932;76;27191;-58
2021/03/30 10:02:37;;;;;;;16.23;9.23;;;;;;;8.58;72.92;102506.88;1835994;78;21033;-58
2021/03/30 10:05:10;;;;;;;15.90;10.45;;;;;;;8.62;73.11;102501.11;1776811;78;21424;-58
2021/03/30 10:07:39;;;;;;;18.42;9.75;;;;;;;8.67;73.11;102497.98;1840737;78;20973;-58
2021/03/30 10:10:10;;;;;;;18.23;10.60;;;;;;;8.69;73.17;102496.62;1830554;78;21132;-57
2021/03/30 10:12:56;;;;;;;20.95;11.28;;;;;;;8.70;73.37;102501.09;1744492;81;21035;-57
2021/03/30 10:15:35;;;;;;;17.00;10.95;;;;;;;8.74;73.59;102497.55;1769946;80;21176;-57
2021/03/30 10:18:10;;;;;;;17.77;10.58;;;;;;;8.81;73.97;102489.97;1777131;80;21366;-58
2021/03/30 10:20:49;;;;;;;22.67;12.50;;;;;;;8.86;74.27;102491.31;1781475;80;21064;-58
2021/03/30 10:23:18;;;;;;;20.55;11.45;;;;;;;8.95;74.46;102495.73;1781459;80;20959;-58
2021/03/30 10:25:47;;;;;;;20.43;12.33;;;;;;;8.94;74.12;102490.86;1781435;80;21125;-57
2021/03/30 10:28:27;;;;;;;20.68;12.50;;;;;;;8.89;74.52;102480.14;1781187;80;21621;-58
2021/03/30 10:31:02;;;;;;;25.08;12.63;;;;;;;8.94;74.52;102477.48;1781425;80;21364;-58
2021/03/30 10:33:41;;;;;;;23.25;12.25;;;;;;;9.00;74.58;102481.94;1781088;80;21171;-58
2021/03/30 10:36:14;;;;;;;20.57;13.00;;;;;;;9.10;74.52;102478.34;1781523;79;21125;-58
2021/03/30 10:39:07;;;;;;;18.85;12.43;;;;;;;9.12;74.24;102485.92;1781493;80;21058;-58
2021/03/30 10:41:38;;;;;;;24.02;12.95;;;;;;;9.12;74.20;102485.05;1781458;79;21172;-58
2021/03/30 10:44:14;;;;;;;19.70;12.82;;;;;;;9.09;74.04;102481.92;1776986;80;21324;-59
2021/03/30 10:46:48;;;;;;;21.95;13.58;;;;;;;9.09;73.76;102470.34;1750607;82;21489;-57
2021/03/30 10:49:16;;;;;;;25.00;13.45;;;;;;;9.08;73.69;102478.80;1750511;82;21129;-58
2021/03/30 10:51:45;;;;;;;24.05;13.75;;;;;;;9.08;73.63;102481.48;1750548;82;21075;-58
2021/03/30 10:54:19;;;;;;;20.43;14.20;;;;;;;9.08;73.47;102472.58;1750696;81;21046;-58
2021/03/30 10:56:44;;;;;;;26.85;15.55;;;;;;;9.06;73.49;102467.64;1750369;81;21418;-58
2021/03/30 10:59:15;;;;;;;24.80;14.85;;;;;;;9.03;73.54;102471.23;1750297;81;21156;-58
2021/03/30 11:01:44;;;;;;;26.17;14.45;;;;;;;9.02;73.48;102469.45;1750450;82;21180;-57
2021/03/30 11:04:11;;;;;;;27.27;14.65;;;;;;;8.99;73.65;102462.30;1750452;81;21184;-50
2021/03/30 11:06:42;;;;;;;22.95;14.15;;;;;;;8.95;74.08;102459.63;1750569;82;21049;-50
2021/03/30 11:09:09;;;;;;;22.50;14.43;;;;;;;8.95;74.10;102466.31;1750462;81;21207;-51
2021/03/30 11:11:37;;;;;;;25.52;15.38;;;;;;;8.97;74.28;102463.22;1749860;79;21470;-49
2021/03/30 11:14:07;;;;;;;24.92;15.53;;;;;;;9.02;74.09;102466.77;1749865;82;21161;-50
2021/03/30 11:16:38;;;;;;;27.25;16.23;;;;;;;9.03;73.91;102463.20;1750005;82;21560;-50
2021/03/30 11:19:08;;;;;;;23.57;15.10;;;;;;;9.07;74.25;102470.33;1749919;82;21232;-49
2021/03/30 11:21:36;;;;;;;22.55;15.03;;;;;;;9.12;73.99;102467.20;1749136;82;21379;-49
2021/03/30 11:24:07;;;;;;;24.85;15.85;;;;;;;9.13;73.92;102470.31;1749883;82;21105;-50
2021/03/30 11:26:37;;;;;;;23.98;15.85;;;;;;;9.16;73.75;102468.97;1750153;79;21170;-49
2021/03/30 11:29:04;;;;;;;25.08;16.35;;;;;;;9.14;73.83;102456.03;1765927;80;21144;-50
2021/03/30 11:36:51;;;;;;;28.02;16.27;;;;;;;9.11;73.90;102454.70;1749907;82;21128;-50
2021/03/30 11:39:18;;;;;;;25.85;15.03;;;;;;;9.13;74.08;102448.91;1749884;82;21141;-50
2021/03/30 11:41:47;;;;;;;31.02;15.95;;;;;;;9.14;73.93;102449.34;1749934;82;21168;-50
2021/03/30 11:44:15;;;;;;;24.05;15.32;;;;;;;9.15;73.83;102446.23;1755925;80;21125;-52
2021/03/30 11:46:43;;;;;;;24.92;15.40;;;;;;;9.14;74.00;102443.99;1780843;80;21703;-50
2021/03/30 11:49:10;;;;;;;24.92;16.07;;;;;;;9.15;74.05;102431.06;1780786;80;21065;-50
2021/03/30 11:51:38;;;;;;;28.87;16.27;;;;;;;9.17;73.83;102435.98;1764562;80;21096;-50
2021/03/30 11:54:06;;;;;;;27.42;16.87;;;;;;;9.16;73.82;102434.17;1749946;81;21476;-49